Sound Trek — WDJ7319 — position and weather

sailwx.info

Track history (hours):
 
Tides and Currents Weather Stations Pressure Air Temp Water Temp Dewpoint Dewpoint Depression Visibility Wind Speed Wind Dir Waves Ship Positions

Sound Trek

Owner: Stark, Gregory M, Everett, WA. More information available from US FCC via Universal Licensing System and Coast Guard Vessel Documentation Center.

Last reported at 2018-Jul-08 20:45 UTC. Time now 2018-Jul-19 17:30 UTC.
Position N 47°57' W 122°19'.
Warning: this ship's position is 10 days out of date.

Type: Pleasure craft. MMSI: 368005530.

Date/timePositionNaut miles runAvg speedWind from/ knotsBaromVisibWave heightAir tempDewpointWater temp
2018-Jul-08 20:45N 47°57' W 122°19'3 8.1
2018-Jul-08 20:26N 47°55' W 122°21'4 7.8
2018-Jul-08 19:59N 47°52' W 122°23'4 8.3
2018-Jul-08 19:30N 47°48' W 122°25'14 0.6
2018-Jul-07 21:57N 47°36' W 122°35'3 6.8
2018-Jul-07 21:30N 47°34' W 122°31'5 8.7
2018-Jul-07 20:59N 47°29' W 122°30'10 0.2
2018-Jul-05 23:05N 47°20' W 122°34'1 7.2
2018-Jul-05 23:00N 47°20' W 122°34'4 7.1
2018-Jul-05 22:27N 47°24' W 122°32'4 7.3
2018-Jul-05 21:57N 47°27' W 122°31'4 7.5
2018-Jul-05 21:29N 47°31' W 122°29'4 8.1
2018-Jul-05 21:00N 47°34' W 122°32'11 0.2
2018-Jul-03 17:38N 47°45' W 122°28'1 8.0
2018-Jul-03 17:30N 47°46' W 122°27'4 8.1
2018-Jul-03 17:00N 47°49' W 122°24'4 8.5
2018-Jul-03 16:29N 47°53' W 122°21'  
Track history (hours):
 
Tides and Currents Weather Stations Pressure Air Temp Water Temp Dewpoint Dewpoint Depression Visibility Wind Speed Wind Dir Waves Ship Positions

Sound Trek

Owner: Stark, Gregory M, Everett, WA. More information available from US FCC via Universal Licensing System and Coast Guard Vessel Documentation Center.

Last reported at 2018-Jul-08 20:45 UTC. Time now 2018-Jul-19 17:30 UTC.
Position N 47°57' W 122°19'.
Warning: this ship's position is 10 days out of date.

Type: Pleasure craft. MMSI: 368005530.

Date/timePositionNaut miles runAvg speedWind from/ knotsBaromVisibWave heightAir tempDewpointWater temp
2018-Jul-08 20:45N 47°57' W 122°19'3 8.1
2018-Jul-08 20:26N 47°55' W 122°21'4 7.8
2018-Jul-08 19:59N 47°52' W 122°23'4 8.3
2018-Jul-08 19:30N 47°48' W 122°25'14 0.6
2018-Jul-07 21:57N 47°36' W 122°35'3 6.8
2018-Jul-07 21:30N 47°34' W 122°31'5 8.7
2018-Jul-07 20:59N 47°29' W 122°30'10 0.2
2018-Jul-05 23:05N 47°20' W 122°34'1 7.2
2018-Jul-05 23:00N 47°20' W 122°34'4 7.1
2018-Jul-05 22:27N 47°24' W 122°32'4 7.3
2018-Jul-05 21:57N 47°27' W 122°31'4 7.5
2018-Jul-05 21:29N 47°31' W 122°29'4 8.1
2018-Jul-05 21:00N 47°34' W 122°32'11 0.2
2018-Jul-03 17:38N 47°45' W 122°28'1 8.0
2018-Jul-03 17:30N 47°46' W 122°27'4 8.1
2018-Jul-03 17:00N 47°49' W 122°24'4 8.5
2018-Jul-03 16:29N 47°53' W 122°21'  

Dump ship's entire track history